OOCL Kaohsiung — 9V9830 — position and weather

sailwx.info

Track history (hours):
 
Tides and Currents Weather Stations Pressure Air Temp Water Temp Dewpoint Dewpoint Depression Visibility Wind Speed Wind Dir Waves Ship Positions

OOCL Kaohsiung

Last reported at 2014-Sep-27 07:33 UTC. Time now 2014-Oct-01 00:10 UTC.
Position N 01°12' E 103°30'.

Length 280 m; draft 13.6 m.

Type: Cargo ship. MMSI: 566389000.

Date/timePositionNaut miles runAvg speedWind from/ knotsBaromVisibWave heightAir tempDewpointWater temp
2014-Sep-27 07:33N 01°12' E 103°30'1818.1
2014-Sep-27 06:33N 01°11' E 103°48'6 5.8
2014-Sep-27 05:31N 01°16' E 103°51'0 0.0
2014-Sep-27 04:31N 01°16' E 103°51'0 0.1
2014-Sep-27 03:25N 01°16' E 103°51'0 0.1
2014-Sep-27 02:31N 01°16' E 103°51'0 0.0
2014-Sep-27 01:31N 01°16' E 103°51'0 0.0
2014-Sep-27 00:22N 01°16' E 103°51'0 0.0
2014-Sep-26 23:31N 01°16' E 103°51'0 0.0
2014-Sep-26 22:31N 01°16' E 103°51'0 0.0
2014-Sep-26 21:31N 01°16' E 103°51'0 0.0
2014-Sep-26 20:31N 01°16' E 103°51'0 0.0
2014-Sep-26 19:31N 01°16' E 103°51'0 0.0
2014-Sep-26 18:28N 01°16' E 103°51'0 0.0
2014-Sep-26 17:31N 01°16' E 103°51'0 0.0
2014-Sep-26 16:28N 01°16' E 103°51'0 0.0
2014-Sep-26 15:31N 01°16' E 103°51'0 0.0
2014-Sep-26 14:31N 01°16' E 103°51'0 0.0
2014-Sep-26 13:31N 01°16' E 103°51'0 0.0
2014-Sep-26 12:31N 01°16' E 103°51'0 0.0
2014-Sep-26 11:31N 01°16' E 103°51'0 0.0
2014-Sep-26 10:28N 01°16' E 103°51'0 0.0
2014-Sep-26 09:28N 01°16' E 103°51'0 0.0
2014-Sep-26 08:28N 01°16' E 103°51'0 0.0
2014-Sep-26 07:31N 01°16' E 103°51'0 0.0
2014-Sep-26 06:31N 01°16' E 103°51'0 0.0
2014-Sep-26 05:31N 01°16' E 103°51'0 0.0
2014-Sep-26 04:31N 01°16' E 103°51'0 0.0
2014-Sep-26 03:31N 01°16' E 103°51'0 0.0
2014-Sep-26 02:25N 01°16' E 103°51'0 0.0
2014-Sep-26 01:31N 01°16' E 103°51'0 0.0
2014-Sep-26 00:31N 01°16' E 103°51'0 0.0
2014-Sep-25 23:31N 01°16' E 103°51'0 0.0
2014-Sep-25 22:31N 01°16' E 103°51'0 0.0
2014-Sep-25 21:28N 01°16' E 103°51'0 0.0
2014-Sep-25 20:31N 01°16' E 103°51'0 0.0
2014-Sep-25 19:28N 01°16' E 103°51'0 0.0
2014-Sep-25 18:31N 01°16' E 103°51'0 0.1
2014-Sep-25 17:31N 01°16' E 103°51'0 0.0
2014-Sep-25 16:16N 01°16' E 103°51'0 0.0
2014-Sep-25 15:25N 01°16' E 103°51'0 0.0
2014-Sep-25 14:07N 01°16' E 103°51'0 0.0
2014-Sep-25 13:28N 01°16' E 103°51'0 0.0
2014-Sep-25 12:28N 01°16' E 103°51'0 0.0
2014-Sep-25 11:19N 01°16' E 103°51'0 0.0
2014-Sep-25 10:22N 01°16' E 103°51'0 0.0
2014-Sep-25 09:16N 01°16' E 103°51'0 0.1
2014-Sep-25 08:31N 01°16' E 103°51'0 0.1
2014-Sep-25 07:31N 01°16' E 103°51'0 0.0
2014-Sep-25 06:28N 01°16' E 103°51'0 0.0
2014-Sep-25 05:33N 01°16' E 103°51'0 0.0
2014-Sep-25 04:34N 01°16' E 103°51'0 0.0
2014-Sep-25 03:33N 01°16' E 103°51'0 0.0
2014-Sep-25 02:33N 01°16' E 103°51'0 0.0
2014-Sep-25 01:33N 01°16' E 103°51'0 0.0
2014-Sep-25 00:33N 01°16' E 103°51'0 0.0
2014-Sep-24 23:33N 01°16' E 103°51'0 0.0
2014-Sep-24 22:33N 01°16' E 103°51'0 0.0
2014-Sep-24 21:33N 01°16' E 103°51'0 0.0
2014-Sep-24 20:33N 01°16' E 103°51'0 0.0
2014-Sep-24 19:33N 01°16' E 103°51'0 0.0
2014-Sep-24 18:34N 01°16' E 103°51'0 0.1
2014-Sep-24 17:33N 01°16' E 103°51'0 0.1
2014-Sep-24 16:33N 01°16' E 103°51'0 0.0
2014-Sep-24 15:33N 01°16' E 103°51'2 2.4
2014-Sep-24 14:33N 01°14' E 103°53'1 1.3
2014-Sep-24 13:33N 01°13' E 103°53'4 4.4
2014-Sep-24 12:33N 01°10' E 103°49'6 5.9
2014-Sep-24 11:33N 01°07' E 103°45'1010.0
2014-Sep-24 10:33N 01°05' E 103°35'1313.3
2014-Sep-24 09:33N 01°12' E 103°23'  
Track history (hours):
 
Tides and Currents Weather Stations Pressure Air Temp Water Temp Dewpoint Dewpoint Depression Visibility Wind Speed Wind Dir Waves Ship Positions

OOCL Kaohsiung

Last reported at 2014-Sep-27 07:33 UTC. Time now 2014-Oct-01 00:10 UTC.
Position N 01°12' E 103°30'.

Length 280 m; draft 13.6 m.

Type: Cargo ship. MMSI: 566389000.

Date/timePositionNaut miles runAvg speedWind from/ knotsBaromVisibWave heightAir tempDewpointWater temp
2014-Sep-27 07:33N 01°12' E 103°30'1818.1
2014-Sep-27 06:33N 01°11' E 103°48'6 5.8
2014-Sep-27 05:31N 01°16' E 103°51'0 0.0
2014-Sep-27 04:31N 01°16' E 103°51'0 0.1
2014-Sep-27 03:25N 01°16' E 103°51'0 0.1
2014-Sep-27 02:31N 01°16' E 103°51'0 0.0
2014-Sep-27 01:31N 01°16' E 103°51'0 0.0
2014-Sep-27 00:22N 01°16' E 103°51'0 0.0
2014-Sep-26 23:31N 01°16' E 103°51'0 0.0
2014-Sep-26 22:31N 01°16' E 103°51'0 0.0
2014-Sep-26 21:31N 01°16' E 103°51'0 0.0
2014-Sep-26 20:31N 01°16' E 103°51'0 0.0
2014-Sep-26 19:31N 01°16' E 103°51'0 0.0
2014-Sep-26 18:28N 01°16' E 103°51'0 0.0
2014-Sep-26 17:31N 01°16' E 103°51'0 0.0
2014-Sep-26 16:28N 01°16' E 103°51'0 0.0
2014-Sep-26 15:31N 01°16' E 103°51'0 0.0
2014-Sep-26 14:31N 01°16' E 103°51'0 0.0
2014-Sep-26 13:31N 01°16' E 103°51'0 0.0
2014-Sep-26 12:31N 01°16' E 103°51'0 0.0
2014-Sep-26 11:31N 01°16' E 103°51'0 0.0
2014-Sep-26 10:28N 01°16' E 103°51'0 0.0
2014-Sep-26 09:28N 01°16' E 103°51'0 0.0
2014-Sep-26 08:28N 01°16' E 103°51'0 0.0
2014-Sep-26 07:31N 01°16' E 103°51'0 0.0
2014-Sep-26 06:31N 01°16' E 103°51'0 0.0
2014-Sep-26 05:31N 01°16' E 103°51'0 0.0
2014-Sep-26 04:31N 01°16' E 103°51'0 0.0
2014-Sep-26 03:31N 01°16' E 103°51'0 0.0
2014-Sep-26 02:25N 01°16' E 103°51'0 0.0
2014-Sep-26 01:31N 01°16' E 103°51'0 0.0
2014-Sep-26 00:31N 01°16' E 103°51'0 0.0
2014-Sep-25 23:31N 01°16' E 103°51'0 0.0
2014-Sep-25 22:31N 01°16' E 103°51'0 0.0
2014-Sep-25 21:28N 01°16' E 103°51'0 0.0
2014-Sep-25 20:31N 01°16' E 103°51'0 0.0
2014-Sep-25 19:28N 01°16' E 103°51'0 0.0
2014-Sep-25 18:31N 01°16' E 103°51'0 0.1
2014-Sep-25 17:31N 01°16' E 103°51'0 0.0
2014-Sep-25 16:16N 01°16' E 103°51'0 0.0
2014-Sep-25 15:25N 01°16' E 103°51'0 0.0
2014-Sep-25 14:07N 01°16' E 103°51'0 0.0
2014-Sep-25 13:28N 01°16' E 103°51'0 0.0
2014-Sep-25 12:28N 01°16' E 103°51'0 0.0
2014-Sep-25 11:19N 01°16' E 103°51'0 0.0
2014-Sep-25 10:22N 01°16' E 103°51'0 0.0
2014-Sep-25 09:16N 01°16' E 103°51'0 0.1
2014-Sep-25 08:31N 01°16' E 103°51'0 0.1
2014-Sep-25 07:31N 01°16' E 103°51'0 0.0
2014-Sep-25 06:28N 01°16' E 103°51'0 0.0
2014-Sep-25 05:33N 01°16' E 103°51'0 0.0
2014-Sep-25 04:34N 01°16' E 103°51'0 0.0
2014-Sep-25 03:33N 01°16' E 103°51'0 0.0
2014-Sep-25 02:33N 01°16' E 103°51'0 0.0
2014-Sep-25 01:33N 01°16' E 103°51'0 0.0
2014-Sep-25 00:33N 01°16' E 103°51'0 0.0
2014-Sep-24 23:33N 01°16' E 103°51'0 0.0
2014-Sep-24 22:33N 01°16' E 103°51'0 0.0
2014-Sep-24 21:33N 01°16' E 103°51'0 0.0
2014-Sep-24 20:33N 01°16' E 103°51'0 0.0
2014-Sep-24 19:33N 01°16' E 103°51'0 0.0
2014-Sep-24 18:34N 01°16' E 103°51'0 0.1
2014-Sep-24 17:33N 01°16' E 103°51'0 0.1
2014-Sep-24 16:33N 01°16' E 103°51'0 0.0
2014-Sep-24 15:33N 01°16' E 103°51'2 2.4
2014-Sep-24 14:33N 01°14' E 103°53'1 1.3
2014-Sep-24 13:33N 01°13' E 103°53'4 4.4
2014-Sep-24 12:33N 01°10' E 103°49'6 5.9
2014-Sep-24 11:33N 01°07' E 103°45'1010.0
2014-Sep-24 10:33N 01°05' E 103°35'1313.3
2014-Sep-24 09:33N 01°12' E 103°23'  

Dump ship's entire track history